Etusivu
METAR-TAF:

METAR-TAF

Lentoasemat :

Tunis, Tunisia

Leveyspiiri: 36-50N, Pituuspiiri: 010-14E, korkeus merenpinnasta: 3 m

Tämänhetkinen sää

Tämä raportti tehtiin 39 minuuttia sitten, kello 04.30 UTC
Tuuli 2 kn pohjoisesta
Lämpötila 22°C
Kosteus 83%
Ilmanpaine 1014 hPa
Näkyvyys 10 km tai enemmän
Muutamia pilviä 3300 ft:n korkeudessa

METAR: DTTA 170430Z 01002KT 9999 FEW033 22/19 Q1014

Aika: 06:09 (05:09 UTC)

Sääennuste

Tämä raportti tehtiin 6 tuntia ja 9 minuuttia sitten, kello 23.00 UTC
Ennuste voimassa 17. päivästä klo 00 UTC - 17. päivään klo 24 UTC
Tuuli 3 kn lännestä/lounaasta
Näkyvyys 10 km tai enemmän
Muutamia pilviä 2600 ft:n korkeudessa
Todennäköisyys 30% :
Ajoittain
17. päivästä klo 14 UTC - 17. päivään klo 20 UTC
Tuuli 20 kn eri suunnista puuskistuen 30 kn:hen
Näkyvyys: 4000 m
Muutamia pilviä 3000 ft:n korkeudessa, Cumulonimbus.
ukkosmyrsky, sadetta

TAF: DTTA 162300Z 1700/1724 25003KT 9999 FEW026 PROB30 TEMPO 1714/1720 VRB20G30KT 4000 TS RA FEW030CB

Säähavainnot ja -ennusteet yli 4000 lentoasemalta (METAR- ja TAF-raportit).

Käytössä olevat sääasemat on merkitty karttaan keltaisilla ja punaisilla pisteillä.

Aseta hiiri pisteen päälle nähdäksesi sääaseman nimen.

Klikkaa sitten nähdäksesi säähavainnot ja -ennusteet.

Kartan vaihtaminen: klikkaa mustalla rastilla varustettuja vihreitä pisteitä, niin voit zoomata sisään; viivalla varustettua vihreää pistettä, niin voit zoomata ulos tai vihreitä nuolia, niin pääset viereisille kartoille.


METAR-TAF: